createdAt,value
2023-10-21T00:01:29.960Z,99050.03
2023-10-21T00:03:56.538Z,99068.22
2023-10-21T00:06:23.995Z,99058.38
2023-10-21T00:08:50.430Z,99061.91
2023-10-21T00:11:17.587Z,99064.44
2023-10-21T00:13:44.106Z,99074.25
2023-10-21T00:16:12.939Z,99076.13
2023-10-21T00:18:40.131Z,99072.59
2023-10-21T00:21:06.687Z,99075.91
2023-10-21T00:23:33.228Z,99070.69
2023-10-21T00:26:03.446Z,99070.06
2023-10-21T00:28:30.027Z,99092.44
2023-10-21T00:30:56.510Z,99079.69
2023-10-21T00:33:23.000Z,99086.78
2023-10-21T00:35:49.424Z,99091.38
2023-10-21T00:38:15.892Z,99104.72
2023-10-21T00:40:55.546Z,99094.50
2023-10-21T00:43:31.807Z,99090.72
2023-10-21T00:45:58.371Z,99092.00
2023-10-21T00:48:26.246Z,99100.97
2023-10-21T00:50:53.019Z,99104.31
2023-10-21T00:53:19.644Z,99102.66
2023-10-21T00:55:46.106Z,99093.44
2023-10-21T00:58:12.664Z,99092.19
2023-10-21T01:00:39.417Z,99081.06
2023-10-21T01:03:06.089Z,99069.78
2023-10-21T01:05:32.614Z,99080.88
2023-10-21T01:07:59.982Z,99095.28
2023-10-21T01:10:26.889Z,99114.91
2023-10-21T01:12:53.285Z,99107.81
2023-10-21T01:15:19.747Z,99099.44
2023-10-21T01:17:52.518Z,99106.56
2023-10-21T01:20:19.086Z,99108.41
2023-10-21T01:22:45.636Z,99122.88
2023-10-21T01:25:12.436Z,99120.97
2023-10-21T01:27:38.980Z,99108.81
2023-10-21T01:30:08.695Z,99110.69
2023-10-21T01:32:35.532Z,99104.44
2023-10-21T01:35:01.970Z,99100.66
2023-10-21T01:37:28.396Z,99087.31
2023-10-21T01:39:56.005Z,99096.28
2023-10-21T01:42:22.437Z,99111.53
2023-10-21T01:44:48.923Z,99110.50
2023-10-21T01:47:15.396Z,99112.34
2023-10-21T01:49:41.825Z,99123.03
2023-10-21T01:52:08.242Z,99134.50
2023-10-21T01:54:34.656Z,99132.63
2023-10-21T01:57:01.578Z,99129.50
2023-10-21T01:59:28.098Z,99140.38
2023-10-21T02:01:54.621Z,99131.16
2023-10-21T02:04:21.075Z,99120.28
2023-10-21T02:06:47.676Z,99108.38
2023-10-21T02:09:14.120Z,99111.31
2023-10-21T02:11:40.532Z,99109.41
2023-10-21T02:14:07.086Z,99116.72
2023-10-21T02:16:33.489Z,99121.97
2023-10-21T02:18:59.868Z,99128.25
2023-10-21T02:21:27.052Z,99123.41
2023-10-21T02:23:53.569Z,99133.44
2023-10-21T02:26:20.012Z,99140.53
2023-10-21T02:28:46.551Z,99126.94
2023-10-21T02:31:13.753Z,99124.22
2023-10-21T02:33:41.216Z,99129.91
2023-10-21T02:36:08.013Z,99134.69
2023-10-21T02:38:34.427Z,99137.41
2023-10-21T02:41:00.832Z,99142.84
2023-10-21T02:43:28.537Z,99143.72
2023-10-21T02:45:54.978Z,99144.31
2023-10-21T02:48:21.521Z,99147.84
2023-10-21T02:50:49.420Z,99154.94
2023-10-21T02:53:15.867Z,99157.66
2023-10-21T02:55:42.299Z,99172.94
2023-10-21T02:58:08.686Z,99169.19
2023-10-21T03:00:35.232Z,99172.94
2023-10-21T03:03:01.986Z,99159.56
2023-10-21T03:05:28.519Z,99164.41
2023-10-21T03:07:55.011Z,99178.81
2023-10-21T03:10:24.003Z,99177.16
2023-10-21T03:12:50.418Z,99180.69
2023-10-21T03:15:16.993Z,99180.28
2023-10-21T03:17:43.580Z,99192.81
2023-10-21T03:20:10.642Z,99187.38
2023-10-21T03:22:37.390Z,99189.66
2023-10-21T03:25:06.554Z,99190.69
2023-10-21T03:27:33.426Z,99188.19
2023-10-21T03:29:59.860Z,99197.19
2023-10-21T03:32:26.469Z,99199.31
2023-10-21T03:34:53.246Z,99204.50
2023-10-21T03:37:19.664Z,99212.44
2023-10-21T03:39:46.080Z,99212.25
2023-10-21T03:42:12.581Z,99214.72
2023-10-21T03:44:39.769Z,99212.63
2023-10-21T03:47:06.391Z,99216.19
2023-10-21T03:49:32.934Z,99205.31
2023-10-21T03:51:59.340Z,99197.16
2023-10-21T03:54:25.794Z,99204.25
2023-10-21T03:56:52.694Z,99204.25
2023-10-21T03:59:19.153Z,99205.09
2023-10-21T04:01:45.549Z,99201.31
2023-10-21T04:04:12.376Z,99209.47
2023-10-21T04:06:38.866Z,99205.91
2023-10-21T04:09:05.335Z,99199.66
2023-10-21T04:11:31.767Z,99201.53
2023-10-21T04:13:58.836Z,99195.28
2023-10-21T04:16:25.265Z,99190.66
2023-10-21T04:18:51.707Z,99198.59
2023-10-21T04:21:18.341Z,99201.09
2023-10-21T04:23:44.887Z,99201.72
2023-10-21T04:26:11.413Z,99194.59
2023-10-21T04:28:37.882Z,99192.72
2023-10-21T04:31:04.287Z,99192.72
2023-10-21T04:33:30.959Z,99197.09
2023-10-21T04:35:57.568Z,99211.75
2023-10-21T04:38:24.100Z,99230.56
2023-10-21T04:40:50.636Z,99228.06
2023-10-21T04:43:17.619Z,99219.06
2023-10-21T04:45:44.014Z,99209.84
2023-10-21T04:48:11.801Z,99213.63
2023-10-21T04:50:38.240Z,99205.69
2023-10-21T04:53:04.710Z,99212.19
2023-10-21T04:55:31.433Z,99207.81
2023-10-21T04:57:58.907Z,99212.84
2023-10-21T05:00:25.973Z,99221.81
2023-10-21T05:02:52.652Z,99224.53
2023-10-21T05:05:19.212Z,99227.88
2023-10-21T05:07:45.645Z,99215.13
2023-10-21T05:10:12.238Z,99220.13
2023-10-21T05:12:38.963Z,99220.13
2023-10-21T05:15:05.675Z,99221.16
2023-10-21T05:17:32.272Z,99222.00
2023-10-21T05:19:58.797Z,99223.06
2023-10-21T05:22:25.339Z,99223.06
2023-10-21T05:24:51.736Z,99232.88
2023-10-21T05:27:18.148Z,99232.88
2023-10-21T05:29:44.639Z,99248.97
2023-10-21T05:32:11.061Z,99247.09
2023-10-21T05:34:37.654Z,99236.22
2023-10-21T05:37:04.470Z,99232.66
2023-10-21T05:39:31.130Z,99256.06
2023-10-21T05:41:58.013Z,99269.44
2023-10-21T05:44:37.151Z,99275.94
2023-10-21T05:47:10.899Z,99271.13
2023-10-21T05:49:37.877Z,99278.22
2023-10-21T05:52:04.540Z,99271.13
2023-10-21T05:54:32.182Z,99275.50
2023-10-21T05:56:58.727Z,99269.25
2023-10-21T05:59:25.243Z,99264.88
2023-10-21T06:01:51.668Z,99264.22
2023-10-21T06:04:18.269Z,99296.84
2023-10-21T06:06:45.476Z,99312.94
2023-10-21T06:09:12.028Z,99320.06
2023-10-21T06:11:38.489Z,99319.25
2023-10-21T06:14:05.009Z,99317.97
2023-10-21T06:16:31.448Z,99315.25
2023-10-21T06:18:57.831Z,99306.03
2023-10-21T06:21:24.340Z,99305.19
2023-10-21T06:23:51.714Z,99302.47
2023-10-21T06:26:18.151Z,99307.09
2023-10-21T06:28:44.672Z,99310.84
2023-10-21T06:31:12.291Z,99312.94
2023-10-21T06:33:39.243Z,99306.91
2023-10-21T06:36:05.965Z,99304.41
2023-10-21T06:38:32.432Z,99314.44
2023-10-21T06:41:10.961Z,99319.25
2023-10-21T06:43:41.711Z,99317.16
2023-10-21T06:46:08.284Z,99322.59
2023-10-21T06:48:34.885Z,99318.00
2023-10-21T06:51:01.397Z,99327.81
2023-10-21T06:53:30.640Z,99332.03
2023-10-21T06:55:57.456Z,99338.06
2023-10-21T06:58:23.861Z,99341.41
2023-10-21T07:00:50.315Z,99344.97
2023-10-21T07:03:18.307Z,99345.78
2023-10-21T07:05:44.819Z,99347.69
2023-10-21T07:08:11.207Z,99353.94
2023-10-21T07:10:39.628Z,99365.66
2023-10-21T07:13:06.131Z,99363.56
2023-10-21T07:15:32.666Z,99352.69
2023-10-21T07:17:59.306Z,99352.69
2023-10-21T07:20:27.343Z,99356.44
2023-10-21T07:22:54.298Z,99350.81
2023-10-21T07:25:20.948Z,99360.41
2023-10-21T07:27:47.675Z,99361.47
2023-10-21T07:30:14.435Z,99353.31
2023-10-21T07:32:40.968Z,99350.38
2023-10-21T07:35:08.014Z,99353.31
2023-10-21T07:37:34.460Z,99354.38
2023-10-21T07:40:01.068Z,99373.41
2023-10-21T07:42:27.875Z,99367.72
2023-10-21T07:44:54.752Z,99384.03
2023-10-21T07:47:21.779Z,99380.06
2023-10-21T07:49:48.340Z,99368.13
2023-10-21T07:52:14.817Z,99380.69
2023-10-21T07:54:41.675Z,99388.00
2023-10-21T07:57:09.747Z,99395.31
2023-10-21T07:59:36.219Z,99398.88
2023-10-21T08:02:02.987Z,99408.28
2023-10-21T08:04:29.860Z,99398.47
2023-10-21T08:06:56.946Z,99403.50
2023-10-21T08:09:23.395Z,99407.03
2023-10-21T08:11:49.824Z,99405.38
2023-10-21T08:14:18.685Z,99420.63
2023-10-21T08:16:45.746Z,99425.25
2023-10-21T08:19:12.923Z,99424.19
2023-10-21T08:21:39.473Z,99414.16
2023-10-21T08:24:06.296Z,99424.00
2023-10-21T08:26:33.250Z,99409.09
2023-10-21T08:29:00.124Z,99418.75
2023-10-21T08:31:26.937Z,99414.97
2023-10-21T08:33:53.921Z,99414.97
2023-10-21T08:36:21.704Z,99425.00
2023-10-21T08:38:48.871Z,99430.25
2023-10-21T08:41:15.596Z,99435.47
2023-10-21T08:43:48.782Z,99441.50
2023-10-21T08:46:16.435Z,99426.03
2023-10-21T08:48:44.127Z,99435.03
2023-10-21T08:51:11.508Z,99444.03
2023-10-21T08:53:40.797Z,99437.53
2023-10-21T08:56:07.169Z,99441.50
2023-10-21T08:58:33.629Z,99451.78
2023-10-21T09:01:00.407Z,99464.31
2023-10-21T09:03:27.129Z,99463.25
2023-10-21T09:06:07.832Z,99453.22
2023-10-21T09:08:35.368Z,99461.38
2023-10-21T09:11:01.903Z,99453.22
2023-10-21T09:13:31.575Z,99470.41
2023-10-21T09:15:58.963Z,99460.13
2023-10-21T09:18:25.586Z,99460.97
2023-10-21T09:20:52.134Z,99469.13
2023-10-21T09:23:18.948Z,99469.34
2023-10-21T09:25:52.919Z,99462.84
2023-10-21T09:28:20.991Z,99465.34
2023-10-21T09:30:57.114Z,99469.75
2023-10-21T09:33:24.020Z,99468.06
2023-10-21T09:36:22.102Z,99477.09
2023-10-21T09:38:51.142Z,99493.59
2023-10-21T09:41:19.958Z,99484.59
2023-10-21T09:43:48.734Z,99490.88
2023-10-21T09:46:16.485Z,99492.53
2023-10-21T09:48:44.634Z,99496.72
2023-10-21T09:51:12.736Z,99490.22
2023-10-21T09:53:40.285Z,99494.00
2023-10-21T09:56:08.509Z,99498.63
2023-10-21T09:58:35.728Z,99499.88
2023-10-21T10:01:06.938Z,99499.03
2023-10-21T10:03:37.634Z,99503.41
2023-10-21T10:06:07.191Z,99506.78
2023-10-21T10:08:34.718Z,99507.59
2023-10-21T10:11:09.474Z,99519.09
2023-10-21T10:13:38.306Z,99518.03
2023-10-21T10:16:24.062Z,99512.59
2023-10-21T10:18:51.487Z,99515.31
2023-10-21T10:21:22.102Z,99513.47
2023-10-21T10:23:50.476Z,99515.94
2023-10-21T10:26:27.808Z,99520.09
2023-10-21T10:28:54.256Z,99509.88
2023-10-21T10:31:22.205Z,99515.09
2023-10-21T10:33:52.095Z,99503.78
2023-10-21T10:36:31.534Z,99500.00
2023-10-21T10:38:58.042Z,99511.72
2023-10-21T10:41:24.525Z,99512.56
2023-10-21T10:44:03.080Z,99513.19
2023-10-21T10:46:31.869Z,99510.47
2023-10-21T10:49:01.824Z,99508.56
2023-10-21T10:51:32.088Z,99514.66
2023-10-21T10:54:02.048Z,99515.47
2023-10-21T10:56:42.134Z,99512.75
2023-10-21T10:59:08.730Z,99522.59
2023-10-21T11:01:35.189Z,99519.88
2023-10-21T11:04:02.945Z,99508.97
2023-10-21T11:06:36.538Z,99522.34
2023-10-21T11:09:05.725Z,99517.97
2023-10-21T11:11:58.560Z,99531.16
2023-10-21T11:14:33.907Z,99528.66
2023-10-21T11:17:01.454Z,99525.09
2023-10-21T11:19:28.245Z,99534.94
2023-10-21T11:21:54.618Z,99541.00
2023-10-21T11:24:21.072Z,99535.78
2023-10-21T11:26:48.203Z,99538.06
2023-10-21T11:29:14.797Z,99530.78
2023-10-21T11:31:41.354Z,99535.16
2023-10-21T11:34:15.201Z,99539.53
2023-10-21T11:36:45.410Z,99542.91
2023-10-21T11:39:14.996Z,99546.44
2023-10-21T11:41:48.502Z,99550.00
2023-10-21T11:44:18.739Z,99544.56
2023-10-21T11:46:45.259Z,99544.56
2023-10-21T11:49:19.896Z,99550.00
2023-10-21T11:51:53.353Z,99556.28
2023-10-21T11:54:40.682Z,99560.47
2023-10-21T11:57:07.566Z,99570.50
2023-10-21T11:59:49.220Z,99570.50
2023-10-21T12:02:28.593Z,99572.38
2023-10-21T12:05:03.869Z,99588.72
2023-10-21T12:07:49.330Z,99590.19
2023-10-21T12:10:25.026Z,99594.81
2023-10-21T12:13:11.134Z,99607.34
2023-10-21T12:15:49.680Z,99608.19
2023-10-21T12:18:34.940Z,99614.69
2023-10-21T12:21:23.483Z,99626.41
2023-10-21T12:24:08.592Z,99620.13
2023-10-21T12:26:53.391Z,99622.63
2023-10-21T12:29:32.358Z,99627.88
2023-10-21T12:32:17.593Z,99628.06
2023-10-21T12:34:51.580Z,99627.06
2023-10-21T12:37:28.799Z,99633.31
2023-10-21T12:39:59.020Z,99626.19
2023-10-21T12:42:45.149Z,99639.59
2023-10-21T12:45:20.368Z,99641.28
2023-10-21T12:47:49.355Z,99643.16
2023-10-21T12:50:16.520Z,99642.75
2023-10-21T12:52:44.843Z,99647.34
2023-10-21T12:55:15.624Z,99648.78
2023-10-21T12:57:44.879Z,99662.63
2023-10-21T13:00:13.088Z,99652.56
2023-10-21T13:02:41.711Z,99664.53
2023-10-21T13:05:08.979Z,99662.41
2023-10-21T13:07:35.496Z,99670.34
2023-10-21T13:10:01.917Z,99680.22
2023-10-21T13:12:28.559Z,99682.09
2023-10-21T13:14:55.376Z,99689.41
2023-10-21T13:17:23.479Z,99682.94
2023-10-21T13:19:49.950Z,99689.41
2023-10-21T13:22:16.382Z,99695.50
2023-10-21T13:24:42.949Z,99688.38
2023-10-21T13:27:09.442Z,99694.66
2023-10-21T13:29:37.361Z,99691.94
2023-10-21T13:32:04.402Z,99697.38
2023-10-21T13:34:32.191Z,99700.94
2023-10-21T13:36:59.196Z,99706.16
2023-10-21T13:39:29.311Z,99709.94
2023-10-21T13:41:56.110Z,99718.94
2023-10-21T13:44:22.507Z,99729.00
2023-10-21T13:46:48.939Z,99730.66
2023-10-21T13:49:16.689Z,99736.94
2023-10-21T13:51:43.836Z,99746.81
2023-10-21T13:54:12.152Z,99756.88
2023-10-21T13:56:38.775Z,99762.50
2023-10-21T13:59:10.732Z,99765.22
2023-10-21T14:01:37.237Z,99771.50
2023-10-21T14:04:03.935Z,99772.34
2023-10-21T14:06:30.539Z,99771.31
2023-10-21T14:08:57.004Z,99777.59
2023-10-21T14:11:23.456Z,99776.75
2023-10-21T14:13:49.898Z,99781.16
2023-10-21T14:16:16.607Z,99774.03
2023-10-21T14:18:44.935Z,99775.94
2023-10-21T14:21:11.972Z,99781.38
2023-10-21T14:23:38.396Z,99788.69
2023-10-21T14:26:05.062Z,99799.38
2023-10-21T14:28:31.983Z,99802.09
2023-10-21T14:31:00.163Z,99809.44
2023-10-21T14:33:29.364Z,99795.81
2023-10-21T14:35:57.420Z,99808.38
2023-10-21T14:38:30.029Z,99807.31
2023-10-21T14:40:56.497Z,99806.50
2023-10-21T14:43:25.917Z,99811.09
2023-10-21T14:45:53.100Z,99819.28
2023-10-21T14:48:20.295Z,99807.56
2023-10-21T14:50:49.234Z,99815.50
2023-10-21T14:53:15.755Z,99804.59
2023-10-21T14:55:52.444Z,99803.78
2023-10-21T14:58:24.358Z,99813.59
2023-10-21T15:00:52.012Z,99816.31
2023-10-21T15:03:21.038Z,99822.59
2023-10-21T15:05:48.554Z,99823.66
2023-10-21T15:08:15.540Z,99833.72
2023-10-21T15:10:44.367Z,99849.00
2023-10-21T15:13:11.561Z,99841.91
2023-10-21T15:15:38.224Z,99849.00
2023-10-21T15:18:06.162Z,99848.19
2023-10-21T15:20:33.665Z,99851.72
2023-10-21T15:23:00.536Z,99856.56
2023-10-21T15:25:26.976Z,99851.13
2023-10-21T15:27:53.463Z,99860.72
2023-10-21T15:30:20.945Z,99872.06
2023-10-21T15:32:48.157Z,99875.63
2023-10-21T15:35:15.921Z,99881.06
2023-10-21T15:37:43.345Z,99880.25
2023-10-21T15:40:10.679Z,99878.34
2023-10-21T15:42:37.092Z,99890.06
2023-10-21T15:45:03.723Z,99890.06
2023-10-21T15:47:30.439Z,99895.53
2023-10-21T15:49:56.901Z,99896.56
2023-10-21T15:52:23.607Z,99905.56
2023-10-21T15:54:50.236Z,99912.06
2023-10-21T15:57:17.073Z,99915.63
2023-10-21T15:59:43.972Z,99911.03
2023-10-21T16:02:10.873Z,99916.47
2023-10-21T16:04:39.183Z,99918.97
2023-10-21T16:07:05.675Z,99921.69
2023-10-21T16:09:33.875Z,99927.97
2023-10-21T16:12:00.895Z,99926.31
2023-10-21T16:14:29.609Z,99929.03
2023-10-21T16:16:56.889Z,99938.25
2023-10-21T16:19:24.073Z,99947.25
2023-10-21T16:21:55.275Z,99954.59
2023-10-21T16:24:22.401Z,99948.31
2023-10-21T16:26:48.919Z,99961.94
2023-10-21T16:29:18.873Z,99959.19
2023-10-21T16:31:45.312Z,99953.94
2023-10-21T16:34:11.965Z,99956.66
2023-10-21T16:36:38.699Z,99962.94
2023-10-21T16:39:05.202Z,99961.94
2023-10-21T16:41:31.688Z,99979.28
2023-10-21T16:43:58.045Z,99980.16
2023-10-21T16:46:24.640Z,99983.72
2023-10-21T16:48:51.164Z,99985.59
2023-10-21T16:51:17.687Z,99989.16
2023-10-21T16:53:44.132Z,99990.19
2023-10-21T16:56:13.527Z,99995.63
2023-10-21T16:58:39.992Z,99996.50
2023-10-21T17:01:06.383Z,99985.59
2023-10-21T17:03:32.896Z,99992.91
2023-10-21T17:06:01.866Z,99998.56
2023-10-21T17:08:35.471Z,100001.28
2023-10-21T17:11:02.684Z,100008.41
2023-10-21T17:13:29.256Z,100005.06
2023-10-21T17:15:55.885Z,100010.50
2023-10-21T17:18:25.893Z,99995.84
2023-10-21T17:20:52.516Z,99998.56
2023-10-21T17:23:18.979Z,100005.69
2023-10-21T17:25:46.757Z,100004.84
2023-10-21T17:28:13.193Z,100009.47
2023-10-21T17:30:39.764Z,100011.13
2023-10-21T17:33:06.329Z,100013.84
2023-10-21T17:35:32.862Z,100024.75
2023-10-21T17:37:59.353Z,100016.78
2023-10-21T17:40:25.731Z,100025.78
2023-10-21T17:42:52.224Z,100029.56
2023-10-21T17:45:19.066Z,100030.41
2023-10-21T17:47:45.586Z,100041.28
2023-10-21T17:50:12.100Z,100037.75
2023-10-21T17:52:38.552Z,100044.25
2023-10-21T17:55:06.482Z,100044.84
2023-10-21T17:57:35.067Z,100051.34
2023-10-21T18:00:01.499Z,100053.03
2023-10-21T18:02:29.536Z,100048.63
2023-10-21T18:04:56.088Z,100054.06
2023-10-21T18:07:23.787Z,100056.81
2023-10-21T18:09:53.685Z,100062.44
2023-10-21T18:12:21.501Z,100071.66
2023-10-21T18:14:48.091Z,100093.44
2023-10-21T18:17:14.671Z,100099.53
2023-10-21T18:19:41.114Z,100097.81
2023-10-21T18:22:07.556Z,100097.81
2023-10-21T18:24:38.429Z,100089.66
2023-10-21T18:27:08.404Z,100093.44
2023-10-21T18:29:35.262Z,100100.97
2023-10-21T18:32:02.471Z,100103.06
2023-10-21T18:34:28.969Z,100098.66
2023-10-21T18:36:55.569Z,100119.59
2023-10-21T18:39:22.701Z,100122.53
2023-10-21T18:41:49.104Z,100128.81
2023-10-21T18:44:17.179Z,100140.72
2023-10-21T18:46:43.835Z,100138.00
2023-10-21T18:49:10.470Z,100148.28
2023-10-21T18:51:37.259Z,100163.75
2023-10-21T18:54:07.645Z,100158.31
2023-10-21T18:56:34.659Z,100178.22
2023-10-21T18:59:01.434Z,100174.00
2023-10-21T19:01:29.116Z,100189.31
2023-10-21T19:03:55.829Z,100189.50
2023-10-21T19:06:22.360Z,100198.72
2023-10-21T19:08:48.745Z,100204.16
2023-10-21T19:11:15.164Z,100201.44
2023-10-21T19:13:41.613Z,100201.66
2023-10-21T19:16:08.068Z,100203.31
2023-10-21T19:18:34.534Z,100204.38
2023-10-21T19:21:07.779Z,100205.38
2023-10-21T19:23:35.252Z,100222.38
2023-10-21T19:26:01.831Z,100232.44
2023-10-21T19:28:31.202Z,100231.59
2023-10-21T19:30:58.646Z,100243.09
2023-10-21T19:33:25.305Z,100254.22
2023-10-21T19:35:55.806Z,100251.50
2023-10-21T19:38:22.634Z,100257.94
2023-10-21T19:40:49.193Z,100253.38
2023-10-21T19:43:15.685Z,100250.66
2023-10-21T19:45:45.103Z,100242.66
2023-10-21T19:48:12.612Z,100249.16
2023-10-21T19:50:42.905Z,100248.94
2023-10-21T19:53:09.773Z,100239.94
2023-10-21T19:55:36.497Z,100250.00
2023-10-21T19:58:06.483Z,100250.00
2023-10-21T20:00:33.468Z,100248.09
2023-10-21T20:03:00.155Z,100257.94
2023-10-21T20:05:27.106Z,100258.81
2023-10-21T20:07:53.728Z,100264.25
2023-10-21T20:10:22.986Z,100261.72
2023-10-21T20:12:49.501Z,100259.00
2023-10-21T20:15:16.588Z,100259.00
2023-10-21T20:17:43.074Z,100269.88
2023-10-21T20:20:10.312Z,100269.03
2023-10-21T20:22:36.854Z,100269.25
2023-10-21T20:25:04.091Z,100273.84
2023-10-21T20:27:30.567Z,100273.84
2023-10-21T20:29:57.128Z,100270.28
2023-10-21T20:32:23.585Z,100279.31
2023-10-21T20:34:50.936Z,100282.16
2023-10-21T20:37:17.465Z,100278.63
2023-10-21T20:39:46.431Z,100274.22
2023-10-21T20:42:14.397Z,100267.94
2023-10-21T20:44:40.916Z,100270.66
2023-10-21T20:47:07.332Z,100272.53
2023-10-21T20:49:33.905Z,100268.09
2023-10-21T20:52:04.937Z,100252.81
2023-10-21T20:54:32.239Z,100262.03
2023-10-21T20:56:59.159Z,100258.47
2023-10-21T20:59:26.382Z,100254.06
2023-10-21T21:01:52.901Z,100254.06
2023-10-21T21:04:20.303Z,100251.34
2023-10-21T21:06:46.999Z,100252.38
2023-10-21T21:09:13.562Z,100257.19
2023-10-21T21:11:40.366Z,100246.09
2023-10-21T21:14:06.747Z,100252.38
2023-10-21T21:16:36.278Z,100257.19
2023-10-21T21:19:03.819Z,100255.50
2023-10-21T21:21:30.245Z,100248.19
2023-10-21T21:23:57.062Z,100249.19
2023-10-21T21:26:23.787Z,100242.91
2023-10-21T21:28:50.235Z,100251.91
2023-10-21T21:31:16.704Z,100260.09
2023-10-21T21:33:43.247Z,100268.25
2023-10-21T21:36:10.874Z,100268.25
2023-10-21T21:38:37.619Z,100258.22
2023-10-21T21:41:10.988Z,100261.78
2023-10-21T21:43:37.485Z,100265.53
2023-10-21T21:46:04.045Z,100266.56
2023-10-21T21:48:30.635Z,100273.91
2023-10-21T21:51:03.594Z,100273.06
2023-10-21T21:53:30.150Z,100277.47
2023-10-21T21:55:56.628Z,100273.91
2023-10-21T21:58:23.040Z,100274.75
2023-10-21T22:00:49.640Z,100281.22
2023-10-21T22:03:16.228Z,100277.47
2023-10-21T22:05:43.219Z,100270.53
2023-10-21T22:08:10.935Z,100278.72
2023-10-21T22:10:39.007Z,100279.72
2023-10-21T22:13:06.540Z,100279.56
2023-10-21T22:15:32.998Z,100279.72
2023-10-21T22:18:01.333Z,100280.78
2023-10-21T22:20:28.855Z,100274.50
2023-10-21T22:22:55.505Z,100277.22
2023-10-21T22:25:39.880Z,100274.50
2023-10-21T22:28:13.225Z,100271.09
2023-10-21T22:30:44.342Z,100271.09
2023-10-21T22:33:11.345Z,100275.72
2023-10-21T22:35:37.903Z,100269.25
2023-10-21T22:38:07.180Z,100263.81
2023-10-21T22:40:34.018Z,100270.09
2023-10-21T22:43:00.443Z,100272.81
2023-10-21T22:45:27.766Z,100278.44
2023-10-21T22:47:54.283Z,100275.72
2023-10-21T22:50:22.188Z,100282.88
2023-10-21T22:52:48.956Z,100276.75
2023-10-21T22:55:16.431Z,100280.16
2023-10-21T22:57:44.748Z,100288.47
2023-10-21T23:00:14.366Z,100281.16
2023-10-21T23:02:41.595Z,100286.81
2023-10-21T23:05:09.201Z,100290.38
2023-10-21T23:07:35.969Z,100280.53
2023-10-21T23:10:05.931Z,100278.00
2023-10-21T23:12:32.651Z,100286.81
2023-10-21T23:14:59.121Z,100290.56
2023-10-21T23:17:25.660Z,100300.63
2023-10-21T23:19:52.101Z,100300.78
2023-10-21T23:22:18.485Z,100307.94
2023-10-21T23:24:44.975Z,100316.09
2023-10-21T23:27:11.398Z,100317.13
2023-10-21T23:29:37.854Z,100308.97
2023-10-21T23:32:04.708Z,100312.72
2023-10-21T23:34:31.207Z,100320.88
2023-10-21T23:36:57.727Z,100320.88
2023-10-21T23:39:24.345Z,100326.31
2023-10-21T23:41:50.883Z,100321.94
2023-10-21T23:44:17.570Z,100323.81
2023-10-21T23:46:44.029Z,100324.66
2023-10-21T23:49:10.498Z,100329.25
2023-10-21T23:51:36.915Z,100329.03
2023-10-21T23:54:04.180Z,100330.09
2023-10-21T23:56:30.667Z,100332.81
2023-10-21T23:58:57.407Z,100333.66
